Adaville, Iowa
Current Conditions -  °F | °C
As of 8:15 AM on Thursday 27 Nov 2014 (Local Time) from KLRJ Reporting Station
Clear Clear  
Wind Chill: -2°   Ceiling: Unl
Heat Index: -2°   Visibility: 10mi
Dew Point: -6°   Wind: 3mph
Humidity: 85%   Direction: 20°NNE
Pressure: 30.51"   Gusts: NA
Location:  42.7082°N, 96.485°W
Report Text: KLRJ 271415Z AUTO 02003KT 10SM CLR M19/M21 A3051 RMK AO2
Loading
Personal Weather Stations






























Interactive Weather Map New forecast layout! Learn more

10-Day Weather Forecast

Advertisements
Track Severe Weather on mobile